sensor_id;sensor_type;location;lat;lon;timestamp;temperature;humidity
38995;DHT22;24769;18.712;99.000;2023-04-19T00:00:45;26.30;99.90
38995;DHT22;24769;18.712;99.000;2023-04-19T00:03:12;26.30;99.90
38995;DHT22;24769;18.712;99.000;2023-04-19T00:05:39;26.50;99.90
38995;DHT22;24769;18.712;99.000;2023-04-19T00:08:06;26.60;99.90
38995;DHT22;24769;18.712;99.000;2023-04-19T00:10:33;26.60;99.90
38995;DHT22;24769;18.712;99.000;2023-04-19T00:13:05;26.70;99.90
38995;DHT22;24769;18.712;99.000;2023-04-19T00:15:32;26.90;99.90
38995;DHT22;24769;18.712;99.000;2023-04-19T00:18:00;26.90;99.90
38995;DHT22;24769;18.712;99.000;2023-04-19T00:20:26;27.30;99.90
38995;DHT22;24769;18.712;99.000;2023-04-19T00:22:53;27.50;99.10
38995;DHT22;24769;18.712;99.000;2023-04-19T00:25:19;27.70;96.50
38995;DHT22;24769;18.712;99.000;2023-04-19T00:27:46;27.80;93.50
38995;DHT22;24769;18.712;99.000;2023-04-19T00:30:13;28.10;88.00
38995;DHT22;24769;18.712;99.000;2023-04-19T00:32:39;28.40;84.30
38995;DHT22;24769;18.712;99.000;2023-04-19T00:35:06;28.60;82.00
38995;DHT22;24769;18.712;99.000;2023-04-19T00:37:33;28.80;76.40
38995;DHT22;24769;18.712;99.000;2023-04-19T00:39:59;28.90;78.70
38995;DHT22;24769;18.712;99.000;2023-04-19T00:42:26;29.20;77.50
38995;DHT22;24769;18.712;99.000;2023-04-19T00:44:52;29.50;71.60
38995;DHT22;24769;18.712;99.000;2023-04-19T00:47:19;29.60;68.50
38995;DHT22;24769;18.712;99.000;2023-04-19T00:49:46;29.70;66.00
38995;DHT22;24769;18.712;99.000;2023-04-19T00:52:12;30.00;60.70
38995;DHT22;24769;18.712;99.000;2023-04-19T00:54:39;30.10;59.20
38995;DHT22;24769;18.712;99.000;2023-04-19T00:57:07;30.20;58.20
38995;DHT22;24769;18.712;99.000;2023-04-19T00:59:34;30.40;57.10
38995;DHT22;24769;18.712;99.000;2023-04-19T01:02:01;30.50;54.40
38995;DHT22;24769;18.712;99.000;2023-04-19T01:04:27;30.50;50.60
38995;DHT22;24769;18.712;99.000;2023-04-19T01:06:54;30.70;53.90
38995;DHT22;24769;18.712;99.000;2023-04-19T01:09:20;31.00;52.10
38995;DHT22;24769;18.712;99.000;2023-04-19T01:11:47;31.00;51.40
38995;DHT22;24769;18.712;99.000;2023-04-19T01:14:13;30.80;51.00
38995;DHT22;24769;18.712;99.000;2023-04-19T01:16:40;30.70;51.30
38995;DHT22;24769;18.712;99.000;2023-04-19T01:19:07;31.10;51.00
38995;DHT22;24769;18.712;99.000;2023-04-19T01:21:36;31.30;48.60
38995;DHT22;24769;18.712;99.000;2023-04-19T01:24:04;31.20;47.60
38995;DHT22;24769;18.712;99.000;2023-04-19T01:26:31;31.20;49.80
38995;DHT22;24769;18.712;99.000;2023-04-19T01:28:58;31.30;48.20
38995;DHT22;24769;18.712;99.000;2023-04-19T01:31:24;31.40;47.10
38995;DHT22;24769;18.712;99.000;2023-04-19T01:33:51;31.50;47.40
38995;DHT22;24769;18.712;99.000;2023-04-19T01:36:17;31.40;47.90
38995;DHT22;24769;18.712;99.000;2023-04-19T01:38:44;31.60;46.60
38995;DHT22;24769;18.712;99.000;2023-04-19T01:41:12;31.80;45.60
38995;DHT22;24769;18.712;99.000;2023-04-19T01:43:39;31.80;45.40
38995;DHT22;24769;18.712;99.000;2023-04-19T01:46:05;32.10;45.20
38995;DHT22;24769;18.712;99.000;2023-04-19T01:48:32;32.20;44.70
38995;DHT22;24769;18.712;99.000;2023-04-19T01:50:58;32.30;43.10
38995;DHT22;24769;18.712;99.000;2023-04-19T01:53:25;32.40;43.50
38995;DHT22;24769;18.712;99.000;2023-04-19T01:55:51;32.00;44.40
38995;DHT22;24769;18.712;99.000;2023-04-19T01:58:18;31.80;45.10
38995;DHT22;24769;18.712;99.000;2023-04-19T02:00:44;31.90;44.40
38995;DHT22;24769;18.712;99.000;2023-04-19T02:03:11;32.10;45.50
38995;DHT22;24769;18.712;99.000;2023-04-19T02:05:40;32.20;44.60
38995;DHT22;24769;18.712;99.000;2023-04-19T02:08:07;32.20;46.00
38995;DHT22;24769;18.712;99.000;2023-04-19T02:10:33;32.50;43.40
38995;DHT22;24769;18.712;99.000;2023-04-19T02:13:00;32.60;41.60
38995;DHT22;24769;18.712;99.000;2023-04-19T02:15:27;32.60;42.20
38995;DHT22;24769;18.712;99.000;2023-04-19T02:17:53;32.70;41.00
38995;DHT22;24769;18.712;99.000;2023-04-19T02:20:20;32.70;41.40
38995;DHT22;24769;18.712;99.000;2023-04-19T02:22:46;33.00;41.20
38995;DHT22;24769;18.712;99.000;2023-04-19T02:25:13;33.00;40.50
38995;DHT22;24769;18.712;99.000;2023-04-19T02:27:41;33.10;40.40
38995;DHT22;24769;18.712;99.000;2023-04-19T02:30:08;33.40;39.40
38995;DHT22;24769;18.712;99.000;2023-04-19T02:32:34;33.40;38.80
38995;DHT22;24769;18.712;99.000;2023-04-19T02:35:01;33.50;39.40
38995;DHT22;24769;18.712;99.000;2023-04-19T02:37:27;33.30;38.30
38995;DHT22;24769;18.712;99.000;2023-04-19T02:39:54;33.30;39.10
38995;DHT22;24769;18.712;99.000;2023-04-19T02:42:20;33.50;37.10
38995;DHT22;24769;18.712;99.000;2023-04-19T02:44:47;33.60;35.50
38995;DHT22;24769;18.712;99.000;2023-04-19T02:47:13;33.60;36.20
38995;DHT22;24769;18.712;99.000;2023-04-19T02:49:40;33.80;34.80
38995;DHT22;24769;18.712;99.000;2023-04-19T02:52:07;33.80;34.30
38995;DHT22;24769;18.712;99.000;2023-04-19T02:54:34;33.90;34.20
38995;DHT22;24769;18.712;99.000;2023-04-19T02:57:00;33.90;32.60
38995;DHT22;24769;18.712;99.000;2023-04-19T02:59:27;33.70;31.60
38995;DHT22;24769;18.712;99.000;2023-04-19T03:01:53;33.80;34.40
38995;DHT22;24769;18.712;99.000;2023-04-19T03:04:20;34.20;32.30
38995;DHT22;24769;18.712;99.000;2023-04-19T03:06:47;34.40;31.50
38995;DHT22;24769;18.712;99.000;2023-04-19T03:09:13;34.70;31.40
38995;DHT22;24769;18.712;99.000;2023-04-19T03:11:39;34.30;30.30
38995;DHT22;24769;18.712;99.000;2023-04-19T03:14:06;34.30;31.30
38995;DHT22;24769;18.712;99.000;2023-04-19T03:16:32;34.70;30.00
38995;DHT22;24769;18.712;99.000;2023-04-19T03:18:59;34.80;28.20
38995;DHT22;24769;18.712;99.000;2023-04-19T03:21:25;34.70;27.40
38995;DHT22;24769;18.712;99.000;2023-04-19T03:23:54;34.70;28.40
38995;DHT22;24769;18.712;99.000;2023-04-19T03:26:21;35.00;28.50
38995;DHT22;24769;18.712;99.000;2023-04-19T03:28:47;35.00;26.70
38995;DHT22;24769;18.712;99.000;2023-04-19T03:31:14;35.10;27.90
38995;DHT22;24769;18.712;99.000;2023-04-19T03:33:40;35.10;26.30
38995;DHT22;24769;18.712;99.000;2023-04-19T03:36:07;35.10;25.40
38995;DHT22;24769;18.712;99.000;2023-04-19T03:38:34;35.30;23.60
38995;DHT22;24769;18.712;99.000;2023-04-19T03:41:00;35.20;22.10
38995;DHT22;24769;18.712;99.000;2023-04-19T03:43:26;35.10;23.00
38995;DHT22;24769;18.712;99.000;2023-04-19T03:45:53;35.40;23.00
38995;DHT22;24769;18.712;99.000;2023-04-19T03:48:20;35.30;22.60
38995;DHT22;24769;18.712;99.000;2023-04-19T03:50:46;35.20;22.40
38995;DHT22;24769;18.712;99.000;2023-04-19T03:53:13;34.90;23.40
38995;DHT22;24769;18.712;99.000;2023-04-19T03:55:39;35.40;24.40
38995;DHT22;24769;18.712;99.000;2023-04-19T03:58:05;35.50;22.60
38995;DHT22;24769;18.712;99.000;2023-04-19T04:00:32;35.20;23.90
38995;DHT22;24769;18.712;99.000;2023-04-19T04:02:58;35.60;24.50
38995;DHT22;24769;18.712;99.000;2023-04-19T04:05:27;35.80;22.40
38995;DHT22;24769;18.712;99.000;2023-04-19T04:07:53;35.90;21.00
38995;DHT22;24769;18.712;99.000;2023-04-19T04:10:21;36.20;21.20
38995;DHT22;24769;18.712;99.000;2023-04-19T04:12:47;36.30;20.00
38995;DHT22;24769;18.712;99.000;2023-04-19T04:15:14;36.30;19.00
38995;DHT22;24769;18.712;99.000;2023-04-19T04:17:40;36.20;21.80
38995;DHT22;24769;18.712;99.000;2023-04-19T04:20:07;36.30;19.90
38995;DHT22;24769;18.712;99.000;2023-04-19T04:22:34;36.40;20.90
38995;DHT22;24769;18.712;99.000;2023-04-19T04:25:01;36.30;19.40
38995;DHT22;24769;18.712;99.000;2023-04-19T04:27:27;36.20;20.10
38995;DHT22;24769;18.712;99.000;2023-04-19T04:29:55;36.30;21.20
38995;DHT22;24769;18.712;99.000;2023-04-19T04:32:21;36.30;20.40
38995;DHT22;24769;18.712;99.000;2023-04-19T04:34:48;36.50;20.60
38995;DHT22;24769;18.712;99.000;2023-04-19T04:37:15;36.40;19.30
38995;DHT22;24769;18.712;99.000;2023-04-19T04:39:42;36.40;19.40
38995;DHT22;24769;18.712;99.000;2023-04-19T04:42:09;36.60;20.20
38995;DHT22;24769;18.712;99.000;2023-04-19T04:44:36;37.00;19.70
38995;DHT22;24769;18.712;99.000;2023-04-19T04:47:03;37.00;19.00
38995;DHT22;24769;18.712;99.000;2023-04-19T04:49:30;36.70;17.90
38995;DHT22;24769;18.712;99.000;2023-04-19T04:51:57;36.60;18.60
38995;DHT22;24769;18.712;99.000;2023-04-19T04:54:23;36.80;18.80
38995;DHT22;24769;18.712;99.000;2023-04-19T04:56:50;36.80;17.60
38995;DHT22;24769;18.712;99.000;2023-04-19T04:59:16;37.10;17.90
38995;DHT22;24769;18.712;99.000;2023-04-19T05:01:43;37.50;17.10
38995;DHT22;24769;18.712;99.000;2023-04-19T05:04:09;37.70;16.30
38995;DHT22;24769;18.712;99.000;2023-04-19T05:06:36;37.70;16.80
38995;DHT22;24769;18.712;99.000;2023-04-19T05:09:06;37.50;16.50
38995;DHT22;24769;18.712;99.000;2023-04-19T05:11:33;37.60;17.10
38995;DHT22;24769;18.712;99.000;2023-04-19T05:13:59;37.10;16.60
38995;DHT22;24769;18.712;99.000;2023-04-19T05:16:26;37.20;17.00
38995;DHT22;24769;18.712;99.000;2023-04-19T05:18:53;37.50;17.50
38995;DHT22;24769;18.712;99.000;2023-04-19T05:21:20;37.80;17.60
38995;DHT22;24769;18.712;99.000;2023-04-19T05:23:46;37.70;17.00
38995;DHT22;24769;18.712;99.000;2023-04-19T05:26:14;37.80;15.40
38995;DHT22;24769;18.712;99.000;2023-04-19T05:28:42;37.20;15.40
38995;DHT22;24769;18.712;99.000;2023-04-19T05:31:08;37.50;17.20
38995;DHT22;24769;18.712;99.000;2023-04-19T05:33:35;37.90;15.30
38995;DHT22;24769;18.712;99.000;2023-04-19T05:36:02;37.70;15.40
38995;DHT22;24769;18.712;99.000;2023-04-19T05:38:28;37.70;15.60
38995;DHT22;24769;18.712;99.000;2023-04-19T05:40:55;37.70;14.90
38995;DHT22;24769;18.712;99.000;2023-04-19T05:43:21;37.50;15.10
38995;DHT22;24769;18.712;99.000;2023-04-19T05:45:48;37.60;15.70
38995;DHT22;24769;18.712;99.000;2023-04-19T05:48:14;37.70;16.50
38995;DHT22;24769;18.712;99.000;2023-04-19T05:50:41;37.70;15.60
38995;DHT22;24769;18.712;99.000;2023-04-19T05:53:07;37.70;15.60
38995;DHT22;24769;18.712;99.000;2023-04-19T05:55:34;37.70;15.60
38995;DHT22;24769;18.712;99.000;2023-04-19T05:58:00;37.80;16.70
38995;DHT22;24769;18.712;99.000;2023-04-19T06:00:27;37.70;15.90
38995;DHT22;24769;18.712;99.000;2023-04-19T06:02:53;37.80;15.70
38995;DHT22;24769;18.712;99.000;2023-04-19T06:05:20;37.70;15.30
38995;DHT22;24769;18.712;99.000;2023-04-19T06:07:47;37.90;15.70
38995;DHT22;24769;18.712;99.000;2023-04-19T06:10:13;38.40;17.60
38995;DHT22;24769;18.712;99.000;2023-04-19T06:12:40;38.30;14.50
38995;DHT22;24769;18.712;99.000;2023-04-19T06:15:07;37.90;14.90
38995;DHT22;24769;18.712;99.000;2023-04-19T06:17:33;38.10;15.40
38995;DHT22;24769;18.712;99.000;2023-04-19T06:20:00;38.10;13.00
38995;DHT22;24769;18.712;99.000;2023-04-19T06:22:27;38.10;13.90
38995;DHT22;24769;18.712;99.000;2023-04-19T06:24:53;38.10;13.80
38995;DHT22;24769;18.712;99.000;2023-04-19T06:27:20;38.10;12.60
38995;DHT22;24769;18.712;99.000;2023-04-19T06:29:47;38.00;12.80
38995;DHT22;24769;18.712;99.000;2023-04-19T06:32:14;38.00;13.30
38995;DHT22;24769;18.712;99.000;2023-04-19T06:34:41;37.70;12.40
38995;DHT22;24769;18.712;99.000;2023-04-19T06:37:07;37.90;12.20
38995;DHT22;24769;18.712;99.000;2023-04-19T06:39:34;38.10;13.20
38995;DHT22;24769;18.712;99.000;2023-04-19T06:42:01;38.00;13.10
38995;DHT22;24769;18.712;99.000;2023-04-19T06:44:28;37.90;13.30
38995;DHT22;24769;18.712;99.000;2023-04-19T06:46:55;38.20;12.40
38995;DHT22;24769;18.712;99.000;2023-04-19T06:49:22;38.30;12.50
38995;DHT22;24769;18.712;99.000;2023-04-19T06:51:49;38.40;11.10
38995;DHT22;24769;18.712;99.000;2023-04-19T06:54:15;38.10;10.70
38995;DHT22;24769;18.712;99.000;2023-04-19T06:56:47;38.10;10.80
38995;DHT22;24769;18.712;99.000;2023-04-19T06:59:19;38.20;11.00
38995;DHT22;24769;18.712;99.000;2023-04-19T07:01:46;38.20;12.30
38995;DHT22;24769;18.712;99.000;2023-04-19T07:04:14;38.30;10.10
38995;DHT22;24769;18.712;99.000;2023-04-19T07:06:41;38.40;10.70
38995;DHT22;24769;18.712;99.000;2023-04-19T07:09:08;38.20;9.70
38995;DHT22;24769;18.712;99.000;2023-04-19T07:11:35;38.20;9.20
38995;DHT22;24769;18.712;99.000;2023-04-19T07:14:02;38.40;8.70
38995;DHT22;24769;18.712;99.000;2023-04-19T07:16:29;38.50;8.20
38995;DHT22;24769;18.712;99.000;2023-04-19T07:18:56;38.40;7.00
38995;DHT22;24769;18.712;99.000;2023-04-19T07:21:23;38.20;6.10
38995;DHT22;24769;18.712;99.000;2023-04-19T07:23:58;38.40;6.30
38995;DHT22;24769;18.712;99.000;2023-04-19T07:26:25;38.40;6.20
38995;DHT22;24769;18.712;99.000;2023-04-19T07:28:52;38.30;5.70
38995;DHT22;24769;18.712;99.000;2023-04-19T07:31:19;38.40;4.90
38995;DHT22;24769;18.712;99.000;2023-04-19T07:33:46;38.50;4.10
38995;DHT22;24769;18.712;99.000;2023-04-19T07:36:13;38.50;3.40
38995;DHT22;24769;18.712;99.000;2023-04-19T07:38:40;38.60;3.50
38995;DHT22;24769;18.712;99.000;2023-04-19T07:41:07;38.70;5.80
38995;DHT22;24769;18.712;99.000;2023-04-19T07:43:34;38.70;5.70
38995;DHT22;24769;18.712;99.000;2023-04-19T07:46:07;38.60;5.00
38995;DHT22;24769;18.712;99.000;2023-04-19T07:48:37;38.80;5.30
38995;DHT22;24769;18.712;99.000;2023-04-19T07:51:14;38.60;7.50
38995;DHT22;24769;18.712;99.000;2023-04-19T07:53:42;38.50;6.90
38995;DHT22;24769;18.712;99.000;2023-04-19T07:56:10;38.50;7.20
38995;DHT22;24769;18.712;99.000;2023-04-19T07:58:38;38.50;8.00
38995;DHT22;24769;18.712;99.000;2023-04-19T08:01:06;38.30;7.90
38995;DHT22;24769;18.712;99.000;2023-04-19T08:03:33;38.20;7.90
38995;DHT22;24769;18.712;99.000;2023-04-19T08:06:05;38.40;7.70
38995;DHT22;24769;18.712;99.000;2023-04-19T08:08:36;38.50;8.70
38995;DHT22;24769;18.712;99.000;2023-04-19T08:11:04;38.60;7.00
38995;DHT22;24769;18.712;99.000;2023-04-19T08:13:31;38.50;6.80
38995;DHT22;24769;18.712;99.000;2023-04-19T08:15:58;38.50;7.20
38995;DHT22;24769;18.712;99.000;2023-04-19T08:18:25;38.50;6.60
38995;DHT22;24769;18.712;99.000;2023-04-19T08:20:52;38.40;6.90
38995;DHT22;24769;18.712;99.000;2023-04-19T08:23:19;38.20;7.00
38995;DHT22;24769;18.712;99.000;2023-04-19T08:25:46;38.20;7.00
38995;DHT22;24769;18.712;99.000;2023-04-19T08:28:13;38.20;6.70
38995;DHT22;24769;18.712;99.000;2023-04-19T08:30:40;38.30;9.00
38995;DHT22;24769;18.712;99.000;2023-04-19T08:33:07;38.10;7.30
38995;DHT22;24769;18.712;99.000;2023-04-19T08:35:34;38.20;6.40
38995;DHT22;24769;18.712;99.000;2023-04-19T08:38:01;38.10;6.30
38995;DHT22;24769;18.712;99.000;2023-04-19T08:40:30;38.00;8.10
38995;DHT22;24769;18.712;99.000;2023-04-19T08:42:57;38.00;7.10
38995;DHT22;24769;18.712;99.000;2023-04-19T08:45:27;38.10;8.70
38995;DHT22;24769;18.712;99.000;2023-04-19T08:47:56;37.90;6.90
38995;DHT22;24769;18.712;99.000;2023-04-19T08:50:24;37.80;7.20
38995;DHT22;24769;18.712;99.000;2023-04-19T08:52:51;37.90;7.40
38995;DHT22;24769;18.712;99.000;2023-04-19T08:55:18;37.90;7.70
38995;DHT22;24769;18.712;99.000;2023-04-19T08:57:46;37.80;5.90
38995;DHT22;24769;18.712;99.000;2023-04-19T09:00:14;37.90;6.80
38995;DHT22;24769;18.712;99.000;2023-04-19T09:02:49;37.90;7.20
38995;DHT22;24769;18.712;99.000;2023-04-19T09:05:17;37.80;7.60
38995;DHT22;24769;18.712;99.000;2023-04-19T09:07:45;37.60;6.80
38995;DHT22;24769;18.712;99.000;2023-04-19T09:10:13;37.60;6.50
38995;DHT22;24769;18.712;99.000;2023-04-19T09:12:41;37.70;7.90
38995;DHT22;24769;18.712;99.000;2023-04-19T09:15:08;37.50;8.10
38995;DHT22;24769;18.712;99.000;2023-04-19T09:17:36;37.50;7.50
38995;DHT22;24769;18.712;99.000;2023-04-19T09:20:05;37.20;7.60
38995;DHT22;24769;18.712;99.000;2023-04-19T09:22:32;36.90;8.30
38995;DHT22;24769;18.712;99.000;2023-04-19T09:24:59;36.80;9.80
38995;DHT22;24769;18.712;99.000;2023-04-19T09:27:30;36.90;7.10
38995;DHT22;24769;18.712;99.000;2023-04-19T09:30:02;37.30;6.70
38995;DHT22;24769;18.712;99.000;2023-04-19T09:32:43;37.40;6.50
38995;DHT22;24769;18.712;99.000;2023-04-19T09:35:10;37.50;8.70
38995;DHT22;24769;18.712;99.000;2023-04-19T09:37:37;37.50;9.20
38995;DHT22;24769;18.712;99.000;2023-04-19T09:40:26;37.50;7.40
38995;DHT22;24769;18.712;99.000;2023-04-19T09:42:53;37.40;7.50
38995;DHT22;24769;18.712;99.000;2023-04-19T09:45:20;37.40;7.50
38995;DHT22;24769;18.712;99.000;2023-04-19T09:48:04;37.20;5.80
38995;DHT22;24769;18.712;99.000;2023-04-19T09:50:32;37.40;8.00
38995;DHT22;24769;18.712;99.000;2023-04-19T09:52:59;37.30;7.50
38995;DHT22;24769;18.712;99.000;2023-04-19T09:55:26;37.20;6.40
38995;DHT22;24769;18.712;99.000;2023-04-19T09:57:53;37.20;6.80
38995;DHT22;24769;18.712;99.000;2023-04-19T10:00:21;37.10;7.50
38995;DHT22;24769;18.712;99.000;2023-04-19T10:02:51;37.10;9.10
38995;DHT22;24769;18.712;99.000;2023-04-19T10:05:23;36.90;8.70
38995;DHT22;24769;18.712;99.000;2023-04-19T10:07:51;36.90;7.80
38995;DHT22;24769;18.712;99.000;2023-04-19T10:10:19;36.70;9.10
38995;DHT22;24769;18.712;99.000;2023-04-19T10:12:52;36.70;9.70
38995;DHT22;24769;18.712;99.000;2023-04-19T10:15:20;36.60;7.90
38995;DHT22;24769;18.712;99.000;2023-04-19T10:17:48;36.60;8.30
38995;DHT22;24769;18.712;99.000;2023-04-19T10:20:25;36.60;8.30
38995;DHT22;24769;18.712;99.000;2023-04-19T10:22:56;36.50;7.60
38995;DHT22;24769;18.712;99.000;2023-04-19T10:25:32;36.30;9.70
38995;DHT22;24769;18.712;99.000;2023-04-19T10:28:02;36.10;10.30
38995;DHT22;24769;18.712;99.000;2023-04-19T10:30:30;36.10;11.10
38995;DHT22;24769;18.712;99.000;2023-04-19T10:33:00;36.00;10.30
38995;DHT22;24769;18.712;99.000;2023-04-19T10:35:36;36.00;9.40
38995;DHT22;24769;18.712;99.000;2023-04-19T10:38:13;35.70;11.00
38995;DHT22;24769;18.712;99.000;2023-04-19T10:43:24;35.50;12.60
38995;DHT22;24769;18.712;99.000;2023-04-19T10:45:52;35.30;12.60
38995;DHT22;24769;18.712;99.000;2023-04-19T10:51:22;35.00;15.20
38995;DHT22;24769;18.712;99.000;2023-04-19T11:01:47;34.40;19.20
38995;DHT22;24769;18.712;99.000;2023-04-19T11:04:23;34.30;20.50
38995;DHT22;24769;18.712;99.000;2023-04-19T11:11:53;33.90;24.70
38995;DHT22;24769;18.712;99.000;2023-04-19T11:14:23;33.70;25.10
38995;DHT22;24769;18.712;99.000;2023-04-19T11:16:51;33.60;25.40
38995;DHT22;24769;18.712;99.000;2023-04-19T11:19:18;33.50;26.60
38995;DHT22;24769;18.712;99.000;2023-04-19T11:21:47;33.40;26.60
38995;DHT22;24769;18.712;99.000;2023-04-19T11:24:14;33.30;27.50
38995;DHT22;24769;18.712;99.000;2023-04-19T11:26:46;33.30;28.00
38995;DHT22;24769;18.712;99.000;2023-04-19T11:29:16;33.10;28.80
38995;DHT22;24769;18.712;99.000;2023-04-19T11:31:45;33.00;29.90
38995;DHT22;24769;18.712;99.000;2023-04-19T11:34:12;33.00;29.60
38995;DHT22;24769;18.712;99.000;2023-04-19T11:36:52;33.00;29.40
38995;DHT22;24769;18.712;99.000;2023-04-19T11:39:19;33.00;29.40
38995;DHT22;24769;18.712;99.000;2023-04-19T11:41:46;32.90;29.30
38995;DHT22;24769;18.712;99.000;2023-04-19T11:44:15;32.80;28.80
38995;DHT22;24769;18.712;99.000;2023-04-19T11:46:42;32.70;28.70
38995;DHT22;24769;18.712;99.000;2023-04-19T11:49:26;32.50;30.10
38995;DHT22;24769;18.712;99.000;2023-04-19T11:51:58;32.30;31.80
38995;DHT22;24769;18.712;99.000;2023-04-19T11:54:25;32.20;32.20
38995;DHT22;24769;18.712;99.000;2023-04-19T11:56:59;32.10;31.80
38995;DHT22;24769;18.712;99.000;2023-04-19T11:59:27;32.00;32.00
38995;DHT22;24769;18.712;99.000;2023-04-19T12:01:54;32.10;31.70
38995;DHT22;24769;18.712;99.000;2023-04-19T12:04:21;32.00;32.20
38995;DHT22;24769;18.712;99.000;2023-04-19T12:06:58;31.90;30.60
38995;DHT22;24769;18.712;99.000;2023-04-19T12:09:25;31.80;32.30
38995;DHT22;24769;18.712;99.000;2023-04-19T12:11:52;31.80;32.90
38995;DHT22;24769;18.712;99.000;2023-04-19T12:14:21;31.80;33.00
38995;DHT22;24769;18.712;99.000;2023-04-19T12:17:08;31.70;35.00
38995;DHT22;24769;18.712;99.000;2023-04-19T12:19:46;31.70;35.50
38995;DHT22;24769;18.712;99.000;2023-04-19T12:22:17;31.60;36.10
38995;DHT22;24769;18.712;99.000;2023-04-19T12:24:52;31.60;37.90
38995;DHT22;24769;18.712;99.000;2023-04-19T12:27:20;31.60;38.10
38995;DHT22;24769;18.712;99.000;2023-04-19T12:29:47;31.60;37.60
38995;DHT22;24769;18.712;99.000;2023-04-19T12:32:14;31.50;37.60
38995;DHT22;24769;18.712;99.000;2023-04-19T12:34:40;31.40;37.80
38995;DHT22;24769;18.712;99.000;2023-04-19T12:37:07;31.50;37.00
38995;DHT22;24769;18.712;99.000;2023-04-19T12:39:34;31.40;37.80
38995;DHT22;24769;18.712;99.000;2023-04-19T12:42:01;31.40;38.30
38995;DHT22;24769;18.712;99.000;2023-04-19T12:44:28;31.30;38.70
38995;DHT22;24769;18.712;99.000;2023-04-19T12:46:55;31.30;39.10
38995;DHT22;24769;18.712;99.000;2023-04-19T12:49:22;31.40;37.60
38995;DHT22;24769;18.712;99.000;2023-04-19T12:51:49;31.40;36.00
38995;DHT22;24769;18.712;99.000;2023-04-19T12:54:16;31.50;37.70
38995;DHT22;24769;18.712;99.000;2023-04-19T12:56:43;31.40;37.30
38995;DHT22;24769;18.712;99.000;2023-04-19T12:59:10;31.30;36.70
38995;DHT22;24769;18.712;99.000;2023-04-19T13:01:37;31.30;37.80
38995;DHT22;24769;18.712;99.000;2023-04-19T13:04:04;31.10;38.30
38995;DHT22;24769;18.712;99.000;2023-04-19T13:06:31;31.00;38.50
38995;DHT22;24769;18.712;99.000;2023-04-19T13:08:57;31.00;40.40
38995;DHT22;24769;18.712;99.000;2023-04-19T13:11:24;30.90;39.40
38995;DHT22;24769;18.712;99.000;2023-04-19T13:13:51;30.90;39.70
38995;DHT22;24769;18.712;99.000;2023-04-19T13:16:18;30.80;40.20
38995;DHT22;24769;18.712;99.000;2023-04-19T13:18:46;30.70;41.10
38995;DHT22;24769;18.712;99.000;2023-04-19T13:21:13;30.80;41.60
38995;DHT22;24769;18.712;99.000;2023-04-19T13:23:42;30.70;43.10
38995;DHT22;24769;18.712;99.000;2023-04-19T13:26:10;30.60;43.20
38995;DHT22;24769;18.712;99.000;2023-04-19T13:28:37;30.60;43.90
38995;DHT22;24769;18.712;99.000;2023-04-19T13:31:05;30.50;42.20
38995;DHT22;24769;18.712;99.000;2023-04-19T13:33:32;30.60;42.80
38995;DHT22;24769;18.712;99.000;2023-04-19T13:35:59;30.60;43.10
38995;DHT22;24769;18.712;99.000;2023-04-19T13:38:26;30.60;43.00
38995;DHT22;24769;18.712;99.000;2023-04-19T13:40:53;30.60;43.20
38995;DHT22;24769;18.712;99.000;2023-04-19T13:43:20;30.50;44.20
38995;DHT22;24769;18.712;99.000;2023-04-19T13:45:47;30.30;44.90
38995;DHT22;24769;18.712;99.000;2023-04-19T13:48:14;30.20;45.20
38995;DHT22;24769;18.712;99.000;2023-04-19T13:50:41;30.40;42.80
38995;DHT22;24769;18.712;99.000;2023-04-19T13:53:07;30.60;44.00
38995;DHT22;24769;18.712;99.000;2023-04-19T13:55:34;30.50;43.80
38995;DHT22;24769;18.712;99.000;2023-04-19T13:58:01;30.40;44.40
38995;DHT22;24769;18.712;99.000;2023-04-19T14:00:28;30.50;45.40
38995;DHT22;24769;18.712;99.000;2023-04-19T14:02:55;30.60;43.10
38995;DHT22;24769;18.712;99.000;2023-04-19T14:05:22;30.60;41.60
38995;DHT22;24769;18.712;99.000;2023-04-19T14:07:52;30.90;38.70
38995;DHT22;24769;18.712;99.000;2023-04-19T14:10:18;30.90;37.90
38995;DHT22;24769;18.712;99.000;2023-04-19T14:12:46;31.00;37.20
38995;DHT22;24769;18.712;99.000;2023-04-19T14:15:13;31.10;36.30
38995;DHT22;24769;18.712;99.000;2023-04-19T14:17:40;31.00;36.00
38995;DHT22;24769;18.712;99.000;2023-04-19T14:20:07;31.00;36.40
38995;DHT22;24769;18.712;99.000;2023-04-19T14:22:34;31.20;35.20
38995;DHT22;24769;18.712;99.000;2023-04-19T14:25:01;31.30;34.20
38995;DHT22;24769;18.712;99.000;2023-04-19T14:27:29;31.30;34.00
38995;DHT22;24769;18.712;99.000;2023-04-19T14:29:56;31.30;33.90
38995;DHT22;24769;18.712;99.000;2023-04-19T14:32:23;31.20;34.30
38995;DHT22;24769;18.712;99.000;2023-04-19T14:34:50;30.90;36.10
38995;DHT22;24769;18.712;99.000;2023-04-19T14:37:17;31.00;36.30
38995;DHT22;24769;18.712;99.000;2023-04-19T14:39:45;31.00;36.70
38995;DHT22;24769;18.712;99.000;2023-04-19T14:42:12;30.90;36.60
38995;DHT22;24769;18.712;99.000;2023-04-19T14:44:39;31.00;36.50
38995;DHT22;24769;18.712;99.000;2023-04-19T14:47:06;31.10;36.90
38995;DHT22;24769;18.712;99.000;2023-04-19T14:49:33;31.10;37.00
38995;DHT22;24769;18.712;99.000;2023-04-19T14:52:00;31.10;36.90
38995;DHT22;24769;18.712;99.000;2023-04-19T14:54:29;31.10;36.70
38995;DHT22;24769;18.712;99.000;2023-04-19T14:56:56;31.20;36.30
38995;DHT22;24769;18.712;99.000;2023-04-19T14:59:22;31.10;36.70
38995;DHT22;24769;18.712;99.000;2023-04-19T15:01:49;31.10;37.30
38995;DHT22;24769;18.712;99.000;2023-04-19T15:04:16;31.10;36.90
38995;DHT22;24769;18.712;99.000;2023-04-19T15:06:43;31.10;37.80
38995;DHT22;24769;18.712;99.000;2023-04-19T15:09:10;31.10;37.60
38995;DHT22;24769;18.712;99.000;2023-04-19T15:11:36;31.10;37.70
38995;DHT22;24769;18.712;99.000;2023-04-19T15:14:03;31.10;38.30
38995;DHT22;24769;18.712;99.000;2023-04-19T15:16:30;31.00;38.60
38995;DHT22;24769;18.712;99.000;2023-04-19T15:18:57;30.90;38.40
38995;DHT22;24769;18.712;99.000;2023-04-19T15:21:24;30.90;39.00
38995;DHT22;24769;18.712;99.000;2023-04-19T15:23:51;30.90;39.90
38995;DHT22;24769;18.712;99.000;2023-04-19T15:26:18;30.70;40.90
38995;DHT22;24769;18.712;99.000;2023-04-19T15:28:46;30.60;41.00
38995;DHT22;24769;18.712;99.000;2023-04-19T15:31:13;30.80;40.30
38995;DHT22;24769;18.712;99.000;2023-04-19T15:33:41;30.80;40.80
38995;DHT22;24769;18.712;99.000;2023-04-19T15:36:08;30.60;42.90
38995;DHT22;24769;18.712;99.000;2023-04-19T15:38:35;30.50;43.70
38995;DHT22;24769;18.712;99.000;2023-04-19T15:41:02;30.30;44.30